Time;durP1;ratioP1;P1;durP2;ratioP2;P2;SDS_P1;SDS_P2;PMS_P1;PMS_P2;Temp;Humidity;BMP_temperature;BMP_pressure;BME280_temperature;BME280_humidity;BME280_pressure;Samples;Min_cycle;Max_cycle;Signal;HPM_P1;HPM_P2
2024/04/09 00:01:28;;;;;;;;;;;;;;;14.63;42.28;94939.94;4446694;26;19929;-61
2024/04/09 00:03:30;;;;;;;;;;;;;;;14.50;42.60;94937.88;4459498;26;19937;-61
2024/04/09 00:05:33;;;;;;;;;;;;;;;14.49;43.16;94933.59;4445800;26;20026;-62
2024/04/09 00:07:35;;;;;;;;;;;;;;;14.50;43.25;94934.44;4440289;26;19930;-60
2024/04/09 00:09:42;;;;;;;;;;;;;;;14.50;43.16;94931.81;4443407;26;19940;-60
2024/04/09 00:11:44;;;;;;;;;;;;;;;14.48;43.04;94928.53;4444752;26;20306;-60
2024/04/09 00:13:50;;;;;;;;;;;;;;;14.46;42.75;94933.16;4450157;26;19977;-62
2024/04/09 00:15:53;;;;;;;;;;;;;;;14.50;42.82;94931.81;4437755;26;19930;-60
2024/04/09 00:17:55;;;;;;;;;;;;;;;14.52;42.84;94929.81;4442137;26;20039;-60
2024/04/09 00:19:58;;;;;;;;;;;;;;;14.46;42.88;94927.88;4444858;26;20056;-61
2024/04/09 00:22:01;;;;;;;;;;;;;;;14.41;42.96;94922.28;4420343;26;20316;-61
2024/04/09 00:24:03;;;;;;;;;;;;;;;14.36;43.22;94917.56;4455719;26;19999;-59
2024/04/09 00:26:04;;;;;;;;;;;;;;;14.35;43.25;94921.22;4437203;26;19990;-61
2024/04/09 00:28:06;;;;;;;;;;;;;;;14.36;43.79;94924.66;4441877;26;19929;-62
2024/04/09 00:30:08;;;;;;;;;;;;;;;14.32;43.79;94924.19;4454353;26;19984;-62
2024/04/09 00:32:10;;;;;;;;;;;;;;;14.30;43.70;94921.75;4463790;26;19961;-60
2024/04/09 00:34:11;;;;;;;;;;;;;;;14.33;43.94;94915.28;4451601;26;19933;-61
2024/04/09 00:36:14;;;;;;;;;;;;;;;14.36;43.76;94919.38;4438918;26;19930;-61
2024/04/09 00:38:19;;;;;;;;;;;;;;;14.37;43.69;94918.38;4437534;26;19978;-64
2024/04/09 00:40:21;;;;;;;;;;;;;;;14.39;43.68;94917.22;4434406;26;20528;-62
2024/04/09 00:42:24;;;;;;;;;;;;;;;14.40;43.80;94918.03;4442980;26;19941;-62
2024/04/09 00:44:26;;;;;;;;;;;;;;;14.38;43.37;94917.38;4454442;26;19936;-61
2024/04/09 00:46:28;;;;;;;;;;;;;;;14.34;43.00;94920.38;4423568;26;19937;-60
2024/04/09 00:48:30;;;;;;;;;;;;;;;14.30;42.89;94919.09;4431421;26;20002;-61
2024/04/09 00:50:32;;;;;;;;;;;;;;;14.28;43.17;94921.09;4447324;26;20388;-59
2024/04/09 00:52:34;;;;;;;;;;;;;;;14.27;43.35;94918.63;4444907;26;19945;-60
2024/04/09 00:54:38;;;;;;;;;;;;;;;14.10;44.25;94915.28;4469131;26;19929;-61
2024/04/09 00:56:40;;;;;;;;;;;;;;;14.00;44.26;94919.97;4443156;26;19937;-60
2024/04/09 00:58:42;;;;;;;;;;;;;;;13.96;44.67;94916.88;4437246;26;19999;-61
2024/04/09 01:00:44;;;;;;;;;;;;;;;13.90;44.57;94913.09;4442682;26;19941;-60
2024/04/09 01:02:48;;;;;;;;;;;;;;;13.76;45.02;94919.09;4435822;26;19930;-61
2024/04/09 01:04:53;;;;;;;;;;;;;;;13.73;45.09;94922.91;4450739;26;20356;-62
2024/04/09 01:06:55;;;;;;;;;;;;;;;13.71;45.18;94916.19;4444510;26;19930;-61
2024/04/09 01:08:58;;;;;;;;;;;;;;;13.77;45.14;94920.75;4443886;26;19938;-61
2024/04/09 01:11:00;;;;;;;;;;;;;;;13.81;45.08;94929.13;4452021;26;19942;-61
2024/04/09 01:13:02;;;;;;;;;;;;;;;13.84;44.99;94921.69;4444486;26;20021;-59
2024/04/09 01:15:04;;;;;;;;;;;;;;;13.86;45.02;94919.72;4449261;26;19952;-61
2024/04/09 01:17:06;;;;;;;;;;;;;;;13.88;44.09;94925.63;4440726;26;19941;-61
2024/04/09 01:19:08;;;;;;;;;;;;;;;13.84;44.18;94924.34;4443636;26;19956;-62
2024/04/09 01:21:10;;;;;;;;;;;;;;;13.82;44.47;94915.78;4418130;26;19938;-61
2024/04/09 01:23:12;;;;;;;;;;;;;;;13.74;44.38;94918.47;4441613;26;19933;-62
2024/04/09 01:25:14;;;;;;;;;;;;;;;13.70;44.66;94915.38;4464356;26;19980;-62
2024/04/09 01:27:16;;;;;;;;;;;;;;;13.75;44.58;94909.59;4430287;26;20599;-62
2024/04/09 01:29:18;;;;;;;;;;;;;;;13.72;44.85;94920.44;4429765;26;20006;-61
2024/04/09 01:31:22;;;;;;;;;;;;;;;13.72;44.58;94912.53;4452977;26;19938;-62
2024/04/09 01:33:24;;;;;;;;;;;;;;;13.70;44.80;94917.16;4436289;26;19960;-63
2024/04/09 01:35:27;;;;;;;;;;;;;;;13.69;44.98;94913.72;4442415;26;20349;-62
2024/04/09 01:37:29;;;;;;;;;;;;;;;13.71;44.47;94914.38;4435368;26;20110;-61
2024/04/09 01:39:35;;;;;;;;;;;;;;;13.69;44.59;94908.44;4454479;26;20215;-61
2024/04/09 01:41:38;;;;;;;;;;;;;;;13.66;44.67;94916.72;4441517;26;19929;-61
2024/04/09 01:43:40;;;;;;;;;;;;;;;13.60;45.34;94916.59;4431037;26;20003;-61
2024/04/09 01:45:42;;;;;;;;;;;;;;;13.55;45.42;94905.72;4445692;26;19998;-61
2024/04/09 01:47:44;;;;;;;;;;;;;;;13.49;45.43;94902.00;4453902;26;20439;-59
2024/04/09 01:49:47;;;;;;;;;;;;;;;13.48;45.98;94905.59;4443590;26;20340;-60
2024/04/09 01:51:49;;;;;;;;;;;;;;;13.52;45.79;94901.63;4451006;26;19935;-61
2024/04/09 01:53:50;;;;;;;;;;;;;;;13.57;45.78;94911.63;4461794;26;20016;-61
2024/04/09 01:55:59;;;;;;;;;;;;;;;13.56;46.13;94908.19;4451052;26;19929;-62
2024/04/09 01:58:01;;;;;;;;;;;;;;;13.57;46.10;94907.19;4430831;26;19930;-61
2024/04/09 02:00:11;;;;;;;;;;;;;;;13.57;46.07;94901.94;4456904;26;20264;-61
2024/04/09 02:02:16;;;;;;;;;;;;;;;13.60;45.99;94900.78;4450333;26;20003;-61
2024/04/09 02:04:18;;;;;;;;;;;;;;;13.62;46.04;94902.25;4450460;26;19930;-65
2024/04/09 02:06:20;;;;;;;;;;;;;;;13.52;46.26;94901.63;4434003;26;20011;-62
2024/04/09 02:08:22;;;;;;;;;;;;;;;13.43;46.29;94900.03;4451860;26;20237;-60
2024/04/09 02:10:24;;;;;;;;;;;;;;;13.42;46.41;94901.03;4444201;26;19938;-62
2024/04/09 02:12:26;;;;;;;;;;;;;;;13.35;46.05;94897.44;4448929;26;20387;-61
2024/04/09 02:14:28;;;;;;;;;;;;;;;13.33;46.37;94894.97;4445460;26;20239;-61
2024/04/09 02:16:31;;;;;;;;;;;;;;;13.24;46.25;94896.78;4434915;26;20102;-60
2024/04/09 02:18:33;;;;;;;;;;;;;;;13.29;46.99;94896.31;4456266;26;19937;-61
2024/04/09 02:20:35;;;;;;;;;;;;;;;13.30;46.35;94908.47;4434770;26;19930;-61
2024/04/09 02:22:37;;;;;;;;;;;;;;;13.28;46.30;94894.66;4442252;26;20372;-62
2024/04/09 02:24:38;;;;;;;;;;;;;;;13.08;47.26;94896.88;4442929;26;20029;-63
2024/04/09 02:26:40;;;;;;;;;;;;;;;12.96;47.46;94900.84;4443430;26;19929;-62
2024/04/09 02:28:43;;;;;;;;;;;;;;;12.80;47.63;94899.91;4454243;26;19998;-60
2024/04/09 02:30:45;;;;;;;;;;;;;;;12.71;47.51;94900.88;4440053;26;19948;-62
2024/04/09 02:32:47;;;;;;;;;;;;;;;12.57;47.43;94910.28;4440571;26;20040;-63
2024/04/09 02:34:48;;;;;;;;;;;;;;;12.50;47.50;94910.13;4446429;26;19934;-64
2024/04/09 02:36:51;;;;;;;;;;;;;;;12.54;47.75;94905.34;4439059;26;19956;-62
2024/04/09 02:38:53;;;;;;;;;;;;;;;12.58;48.26;94901.38;4461977;26;20271;-62
2024/04/09 02:40:55;;;;;;;;;;;;;;;12.62;48.41;94894.81;4445706;26;19961;-61
2024/04/09 02:42:56;;;;;;;;;;;;;;;12.70;48.35;94889.53;4445723;26;20437;-61
2024/04/09 02:44:59;;;;;;;;;;;;;;;12.74;48.00;94889.22;4441763;26;20003;-64
2024/04/09 02:47:01;;;;;;;;;;;;;;;12.80;47.10;94894.63;4463442;26;20452;-61
2024/04/09 02:49:03;;;;;;;;;;;;;;;12.84;47.43;94885.44;4434785;26;20002;-60
2024/04/09 02:51:05;;;;;;;;;;;;;;;12.89;47.27;94887.53;4446402;26;19929;-61
2024/04/09 02:53:09;;;;;;;;;;;;;;;12.93;46.94;94891.47;4447498;26;19936;-61
2024/04/09 02:55:11;;;;;;;;;;;;;;;12.95;47.15;94886.03;4432102;26;19930;-60
2024/04/09 02:57:13;;;;;;;;;;;;;;;12.96;46.90;94879.81;4440627;26;19999;-61
2024/04/09 02:59:15;;;;;;;;;;;;;;;12.96;46.76;94888.50;4445406;26;19929;-60
2024/04/09 03:01:17;;;;;;;;;;;;;;;12.97;47.02;94887.53;4444029;26;19938;-61
2024/04/09 03:03:19;;;;;;;;;;;;;;;13.00;47.39;94892.44;4445844;26;19937;-61
2024/04/09 03:05:29;;;;;;;;;;;;;;;13.04;46.94;94898.19;4447385;26;19958;-61
2024/04/09 03:07:31;;;;;;;;;;;;;;;13.03;47.55;94897.34;4442588;26;19929;-61
2024/04/09 03:09:33;;;;;;;;;;;;;;;12.98;47.68;94894.41;4448933;26;20013;-61
2024/04/09 03:11:35;;;;;;;;;;;;;;;12.86;47.95;94893.97;4446785;26;19942;-60
2024/04/09 03:13:37;;;;;;;;;;;;;;;12.80;47.90;94897.25;4442583;26;19937;-61
2024/04/09 03:15:39;;;;;;;;;;;;;;;12.84;48.35;94895.09;4445267;26;20008;-62
2024/04/09 03:17:41;;;;;;;;;;;;;;;12.79;48.73;94898.22;4449452;26;19977;-61
2024/04/09 03:19:47;;;;;;;;;;;;;;;12.77;48.32;94900.22;4453827;26;19936;-61
2024/04/09 03:21:51;;;;;;;;;;;;;;;12.78;48.96;94898.44;4452331;26;19929;-61
2024/04/09 03:23:52;;;;;;;;;;;;;;;12.77;48.86;94904.66;4444266;26;20249;-62
2024/04/09 03:25:54;;;;;;;;;;;;;;;12.77;49.29;94905.47;4461714;26;20037;-60
2024/04/09 03:27:56;;;;;;;;;;;;;;;12.72;49.47;94910.41;4460408;26;20002;-63
2024/04/09 03:29:59;;;;;;;;;;;;;;;12.68;49.79;94914.38;4451072;26;19994;-62
2024/04/09 03:32:01;;;;;;;;;;;;;;;12.70;49.63;94909.75;4445831;26;19936;-64
2024/04/09 03:34:03;;;;;;;;;;;;;;;12.70;49.61;94907.13;4470052;26;20331;-62
2024/04/09 03:36:07;;;;;;;;;;;;;;;12.73;49.46;94911.22;4445079;26;19933;-62
2024/04/09 03:38:09;;;;;;;;;;;;;;;12.71;49.41;94911.38;4443488;26;19941;-61
2024/04/09 03:40:12;;;;;;;;;;;;;;;12.66;49.60;94911.88;4442643;26;20335;-61
2024/04/09 03:42:15;;;;;;;;;;;;;;;12.66;49.59;94916.34;4429350;26;19929;-62
2024/04/09 03:44:17;;;;;;;;;;;;;;;12.68;49.79;94911.72;4444226;26;20450;-61
2024/04/09 03:46:19;;;;;;;;;;;;;;;12.70;49.78;94917.66;4428584;26;20104;-60
2024/04/09 03:48:20;;;;;;;;;;;;;;;12.72;50.21;94913.03;4443935;26;19933;-61
2024/04/09 03:50:23;;;;;;;;;;;;;;;12.73;49.82;94913.84;4443683;26;19970;-63
2024/04/09 03:52:24;;;;;;;;;;;;;;;12.68;49.66;94912.53;4446014;26;19936;-61
2024/04/09 03:54:26;;;;;;;;;;;;;;;12.69;49.82;94914.22;4447691;26;20395;-61
2024/04/09 03:56:28;;;;;;;;;;;;;;;12.68;50.00;94923.06;4447838;26;19936;-59
2024/04/09 03:58:31;;;;;;;;;;;;;;;12.67;49.94;94924.06;4460612;26;19999;-61
2024/04/09 04:00:34;;;;;;;;;;;;;;;12.64;50.73;94926.19;4439194;26;19941;-62
2024/04/09 04:02:36;;;;;;;;;;;;;;;12.62;49.90;94926.34;4448281;26;19960;-62
2024/04/09 04:04:41;;;;;;;;;;;;;;;12.67;50.23;94925.88;4444558;26;19930;-62
2024/04/09 04:06:43;;;;;;;;;;;;;;;12.68;50.38;94933.56;4435721;26;19930;-62
2024/04/09 04:08:45;;;;;;;;;;;;;;;12.71;50.63;94929.78;4439760;26;19938;-62
2024/04/09 04:10:56;;;;;;;;;;;;;;;12.70;49.82;94936.03;4427264;26;20271;-62
2024/04/09 04:12:58;;;;;;;;;;;;;;;12.71;49.96;94932.41;4442809;26;20683;-61
2024/04/09 04:15:00;;;;;;;;;;;;;;;12.72;50.35;94934.06;4449571;26;19930;-67
2024/04/09 04:17:03;;;;;;;;;;;;;;;12.75;50.59;94938.97;4443209;26;19958;-63
2024/04/09 04:19:05;;;;;;;;;;;;;;;12.82;51.24;94939.13;4445798;26;19930;-61
2024/04/09 04:21:08;;;;;;;;;;;;;;;12.86;49.84;94943.91;4454007;26;19953;-62
2024/04/09 04:23:13;;;;;;;;;;;;;;;12.87;48.97;94939.47;4445269;26;20000;-62
2024/04/09 04:25:14;;;;;;;;;;;;;;;12.87;49.85;94944.72;4446118;26;19940;-62
2024/04/09 04:27:16;;;;;;;;;;;;;;;12.86;49.51;94943.06;4447982;26;20067;-60
2024/04/09 04:29:20;;;;;;;;;;;;;;;12.86;49.47;94945.72;4446818;26;19940;-62
2024/04/09 04:31:22;;;;;;;;;;;;;;;12.90;49.84;94944.38;4446987;26;20002;-62
2024/04/09 04:33:24;;;;;;;;;;;;;;;12.94;50.21;94942.25;4462473;26;20244;-61
2024/04/09 04:35:26;;;;;;;;;;;;;;;12.95;50.22;94936.84;4434707;26;19929;-64
2024/04/09 04:37:28;;;;;;;;;;;;;;;13.01;50.45;94937.97;4437450;26;19929;-62
2024/04/09 04:39:30;;;;;;;;;;;;;;;13.00;49.39;94937.13;4445482;26;19968;-62
2024/04/09 04:41:31;;;;;;;;;;;;;;;13.02;49.62;94935.16;4429305;26;19999;-60
2024/04/09 04:43:34;;;;;;;;;;;;;;;13.01;49.24;94937.97;4442512;26;19998;-64
2024/04/09 04:45:36;;;;;;;;;;;;;;;13.01;49.23;94938.78;4448209;26;19950;-62
2024/04/09 04:47:37;;;;;;;;;;;;;;;13.12;49.26;94937.63;4453296;26;19930;-64
2024/04/09 04:49:39;;;;;;;;;;;;;;;13.21;49.64;94930.53;4441612;26;19929;-62
2024/04/09 04:51:42;;;;;;;;;;;;;;;13.22;49.38;94937.41;4444370;26;19930;-62
2024/04/09 04:53:43;;;;;;;;;;;;;;;13.24;49.61;94933.63;4445340;26;19941;-62
2024/04/09 04:55:46;;;;;;;;;;;;;;;13.32;49.03;94938.88;4444050;26;20248;-62
2024/04/09 04:57:47;;;;;;;;;;;;;;;13.34;48.60;94944.00;4423925;26;20230;-61
2024/04/09 04:59:49;;;;;;;;;;;;;;;13.42;48.34;94937.84;4424897;26;19941;-61
2024/04/09 05:01:51;;;;;;;;;;;;;;;13.43;48.13;94947.41;4393706;26;20077;-60
2024/04/09 05:03:53;;;;;;;;;;;;;;;13.45;48.23;94946.25;4438153;26;19945;-62
2024/04/09 05:05:55;;;;;;;;;;;;;;;13.43;48.23;94942.16;4446121;26;20053;-64
2024/04/09 05:07:57;;;;;;;;;;;;;;;13.41;48.20;94954.66;4445284;26;20233;-60
2024/04/09 05:09:59;;;;;;;;;;;;;;;13.48;47.57;94945.06;4447641;26;20304;-61
2024/04/09 05:12:04;;;;;;;;;;;;;;;13.55;47.77;94950.47;4443705;26;19937;-61
2024/04/09 05:14:06;;;;;;;;;;;;;;;13.55;48.38;94950.47;4441768;26;20501;-62
2024/04/09 05:16:08;;;;;;;;;;;;;;;13.60;48.70;94943.72;4443318;26;20004;-62
2024/04/09 05:18:09;;;;;;;;;;;;;;;13.67;48.40;94939.41;4436163;26;20015;-61
2024/04/09 05:20:12;;;;;;;;;;;;;;;13.77;47.70;94955.00;4443171;26;19930;-62
2024/04/09 05:22:17;;;;;;;;;;;;;;;13.90;47.34;94944.72;4438875;26;20230;-62
2024/04/09 05:24:19;;;;;;;;;;;;;;;13.97;47.21;94950.09;4448872;26;20008;-61
2024/04/09 05:26:21;;;;;;;;;;;;;;;14.04;47.08;94945.78;4444338;26;19953;-63
2024/04/09 05:28:23;;;;;;;;;;;;;;;14.08;46.63;94938.34;4441881;26;20014;-63
2024/04/09 05:30:24;;;;;;;;;;;;;;;14.15;46.55;94944.53;4442244;26;20287;-70
2024/04/09 05:32:29;;;;;;;;;;;;;;;14.21;46.27;94943.03;4451116;26;19989;-70
2024/04/09 05:34:31;;;;;;;;;;;;;;;14.24;46.70;94940.03;4445908;26;19929;-71
2024/04/09 05:36:33;;;;;;;;;;;;;;;14.30;46.35;94937.56;4445146;26;20326;-71
2024/04/09 05:38:35;;;;;;;;;;;;;;;14.29;46.14;94937.72;4439843;26;19952;-70
2024/04/09 05:40:40;;;;;;;;;;;;;;;14.45;45.65;94937.56;4442243;26;19963;-70
2024/04/09 05:42:44;;;;;;;;;;;;;;;14.32;45.36;94935.53;4438678;26;20267;-71
2024/04/09 05:44:47;;;;;;;;;;;;;;;14.32;45.37;94934.72;4445817;26;19929;-70
2024/04/09 05:46:48;;;;;;;;;;;;;;;14.19;45.81;94937.13;4422434;26;19958;-69
2024/04/09 05:48:50;;;;;;;;;;;;;;;14.27;45.92;94937.88;4448808;26;19934;-68
2024/04/09 05:50:52;;;;;;;;;;;;;;;14.46;45.68;94931.31;4449002;26;19936;-68
2024/04/09 05:52:54;;;;;;;;;;;;;;;14.57;45.55;94932.75;4432775;26;20098;-69
2024/04/09 05:54:57;;;;;;;;;;;;;;;14.70;45.10;94938.22;4442467;26;19930;-69
2024/04/09 05:56:59;;;;;;;;;;;;;;;14.79;44.54;94938.16;4440033;26;19941;-69
2024/04/09 05:59:00;;;;;;;;;;;;;;;14.89;44.85;94936.09;4439957;26;19936;-68
2024/04/09 06:01:06;;;;;;;;;;;;;;;15.04;44.75;94931.66;4440458;26;19929;-68
2024/04/09 06:03:09;;;;;;;;;;;;;;;15.19;43.55;94925.56;4436578;26;19930;-69
2024/04/09 06:05:11;;;;;;;;;;;;;;;15.07;42.54;94935.75;4444494;26;19965;-69
2024/04/09 06:07:13;;;;;;;;;;;;;;;14.76;42.51;94938.53;4437985;26;19940;-69
2024/04/09 06:09:15;;;;;;;;;;;;;;;14.45;43.07;94940.22;4452394;26;20395;-68
2024/04/09 06:11:17;;;;;;;;;;;;;;;14.06;43.80;94946.41;4436656;26;20638;-73
2024/04/09 06:13:19;;;;;;;;;;;;;;;13.95;43.98;94951.28;4442457;26;19938;-70
2024/04/09 06:15:22;;;;;;;;;;;;;;;13.66;44.44;94956.19;4444398;26;19933;-67
2024/04/09 06:17:23;;;;;;;;;;;;;;;13.79;44.60;94952.16;4424262;26;19973;-73
2024/04/09 06:19:25;;;;;;;;;;;;;;;13.85;44.59;94949.69;4421040;26;20623;-66
2024/04/09 06:21:28;;;;;;;;;;;;;;;13.93;44.87;94946.16;4419912;26;20431;-68
2024/04/09 06:23:30;;;;;;;;;;;;;;;13.72;45.46;94949.41;4450718;26;20009;-69
2024/04/09 06:25:32;;;;;;;;;;;;;;;13.83;45.22;94946.41;4443268;26;20022;-67
2024/04/09 06:27:39;;;;;;;;;;;;;;;14.14;44.96;94942.91;4453116;26;19929;-72
2024/04/09 06:29:41;;;;;;;;;;;;;;;14.33;44.33;94949.56;4465194;26;20333;-74
2024/04/09 06:31:43;;;;;;;;;;;;;;;14.37;43.97;94947.38;4444303;26;19933;-67
2024/04/09 06:33:50;;;;;;;;;;;;;;;14.57;43.60;94945.13;4459894;26;20014;-68
2024/04/09 06:35:52;;;;;;;;;;;;;;;14.86;43.71;94939.06;4458434;26;20132;-72
2024/04/09 06:37:54;;;;;;;;;;;;;;;14.99;42.84;94941.91;4436204;26;19930;-68
2024/04/09 06:39:56;;;;;;;;;;;;;;;15.08;42.53;94937.41;4454737;26;20563;-67
2024/04/09 06:42:02;;;;;;;;;;;;;;;14.92;42.11;94944.44;4441361;26;19987;-69
2024/04/09 06:44:04;;;;;;;;;;;;;;;14.99;42.50;94939.28;4451959;26;20431;-66
2024/04/09 06:46:07;;;;;;;;;;;;;;;14.88;42.71;94945.00;4447147;26;20376;-71
2024/04/09 06:48:08;;;;;;;;;;;;;;;14.94;42.46;94941.63;4433488;26;19942;-71
2024/04/09 06:50:11;;;;;;;;;;;;;;;15.04;42.52;94936.13;4444380;26;20067;-68
2024/04/09 06:52:13;;;;;;;;;;;;;;;15.27;42.26;94938.66;4443553;26;20016;-68
2024/04/09 06:54:15;;;;;;;;;;;;;;;15.55;42.17;94933.53;4458219;26;19929;-72
2024/04/09 06:56:17;;;;;;;;;;;;;;;15.80;41.34;94936.72;4447941;26;19995;-73
2024/04/09 06:58:18;;;;;;;;;;;;;;;16.04;40.96;94938.22;4420126;26;20360;-71
2024/04/09 07:00:21;;;;;;;;;;;;;;;15.92;40.62;94932.59;4448908;26;19928;-68
2024/04/09 07:02:23;;;;;;;;;;;;;;;15.42;41.51;94942.09;4405506;26;19943;-70
2024/04/09 07:04:27;;;;;;;;;;;;;;;15.05;42.47;94930.63;4430752;26;19936;-73
2024/04/09 07:06:30;;;;;;;;;;;;;;;14.84;42.54;94936.63;4433963;26;20076;-68
2024/04/09 07:08:32;;;;;;;;;;;;;;;14.66;42.72;94934.31;4442302;26;19937;-66
2024/04/09 07:10:33;;;;;;;;;;;;;;;15.01;42.63;94926.72;4442093;26;20288;-70
2024/04/09 07:12:35;;;;;;;;;;;;;;;15.43;42.12;94924.47;4442686;26;20402;-65
2024/04/09 07:14:37;;;;;;;;;;;;;;;15.88;41.67;94920.78;4436220;26;20001;-62
2024/04/09 07:16:41;;;;;;;;;;;;;;;16.23;40.47;94928.03;4450359;26;20327;-63
2024/04/09 07:18:43;;;;;;;;;;;;;;;16.50;40.70;94919.38;4453916;26;19936;-64
2024/04/09 07:20:46;;;;;;;;;;;;;;;16.72;39.63;94925.44;4449863;26;19949;-62
2024/04/09 07:22:49;;;;;;;;;;;;;;;16.86;39.26;94929.03;4441090;26;19969;-64
2024/04/09 07:24:50;;;;;;;;;;;;;;;16.89;39.21;94925.19;4437636;26;20395;-59
2024/04/09 07:26:53;;;;;;;;;;;;;;;16.97;38.46;94919.72;4449254;26;19936;-62
2024/04/09 07:28:55;;;;;;;;;;;;;;;16.63;39.29;94923.94;4444751;26;19941;-62
2024/04/09 07:31:01;;;;;;;;;;;;;;;16.76;38.95;94925.88;4462276;26;19941;-62
2024/04/09 07:33:04;;;;;;;;;;;;;;;17.01;38.67;94922.81;4445979;26;20407;-61
2024/04/09 07:35:06;;;;;;;;;;;;;;;17.25;38.20;94917.09;4441052;26;19933;-62
2024/04/09 07:37:08;;;;;;;;;;;;;;;17.35;38.32;94919.38;4438802;26;20370;-60
2024/04/09 07:39:14;;;;;;;;;;;;;;;17.43;38.60;94916.56;4442527;26;19929;-60
2024/04/09 07:41:19;;;;;;;;;;;;;;;17.66;37.87;94915.44;4439484;26;19983;-61
2024/04/09 07:43:20;;;;;;;;;;;;;;;17.70;37.40;94912.22;4440809;26;19941;-60
2024/04/09 07:45:22;;;;;;;;;;;;;;;17.79;37.41;94912.88;4445478;26;19957;-60
2024/04/09 07:47:24;;;;;;;;;;;;;;;17.98;37.23;94917.44;4450854;26;19953;-62
2024/04/09 07:49:26;;;;;;;;;;;;;;;18.04;37.18;94912.34;4444162;26;19933;-62
2024/04/09 07:51:28;;;;;;;;;;;;;;;17.70;37.16;94908.72;4448097;26;19930;-59
2024/04/09 07:53:30;;;;;;;;;;;;;;;17.60;36.88;94911.75;4447452;26;19949;-60
2024/04/09 07:55:32;;;;;;;;;;;;;;;17.61;36.76;94911.53;4465594;26;19941;-60
2024/04/09 07:57:34;;;;;;;;;;;;;;;17.74;36.97;94899.38;4470593;26;20328;-62
2024/04/09 07:59:36;;;;;;;;;;;;;;;17.84;37.13;94902.50;4447302;26;19941;-60
2024/04/09 08:01:38;;;;;;;;;;;;;;;18.06;36.67;94905.81;4449678;26;19957;-62
2024/04/09 08:03:40;;;;;;;;;;;;;;;17.91;36.44;94900.69;4457832;26;19933;-61
2024/04/09 08:05:42;;;;;;;;;;;;;;;17.66;36.82;94895.09;4448485;26;20575;-63
2024/04/09 08:07:44;;;;;;;;;;;;;;;17.80;36.82;94898.59;4452244;26;19945;-62
2024/04/09 08:09:46;;;;;;;;;;;;;;;17.16;37.56;94897.06;4467305;26;19929;-64
2024/04/09 08:11:49;;;;;;;;;;;;;;;16.71;37.95;94892.06;4438299;26;20042;-62
2024/04/09 08:13:51;;;;;;;;;;;;;;;16.92;38.07;94888.56;4445714;26;19941;-60
2024/04/09 08:15:54;;;;;;;;;;;;;;;17.05;38.08;94890.47;4432993;26;20337;-60
2024/04/09 08:17:56;;;;;;;;;;;;;;;17.30;37.38;94884.72;4450034;26;20038;-62
2024/04/09 08:19:58;;;;;;;;;;;;;;;17.13;37.94;94887.69;4451214;26;19941;-62
2024/04/09 08:22:01;;;;;;;;;;;;;;;17.30;37.71;94884.72;4442273;26;19940;-61
2024/04/09 08:24:03;;;;;;;;;;;;;;;17.68;37.36;94881.63;4434197;26;20005;-61
2024/04/09 08:26:05;;;;;;;;;;;;;;;18.00;37.07;94877.47;4436564;26;19937;-62
2024/04/09 08:28:07;;;;;;;;;;;;;;;18.41;36.92;94887.09;4452433;26;20442;-61
2024/04/09 08:30:12;;;;;;;;;;;;;;;18.72;35.95;94877.75;4444126;26;19937;-63
2024/04/09 08:32:14;;;;;;;;;;;;;;;18.92;35.55;94878.56;4437721;26;20314;-65
2024/04/09 08:34:17;;;;;;;;;;;;;;;19.00;35.15;94873.03;4434613;26;19936;-62
2024/04/09 08:36:20;;;;;;;;;;;;;;;19.08;34.58;94866.72;4443293;26;19945;-62
2024/04/09 08:38:22;;;;;;;;;;;;;;;19.07;34.34;94866.91;4435276;26;19930;-64
2024/04/09 08:40:24;;;;;;;;;;;;;;;18.85;34.46;94861.84;4438747;26;19945;-62
2024/04/09 08:42:28;;;;;;;;;;;;;;;18.94;34.38;94860.59;4430505;26;20015;-62
2024/04/09 08:44:30;;;;;;;;;;;;;;;19.11;34.64;94860.97;4451224;26;20070;-61
2024/04/09 08:46:33;;;;;;;;;;;;;;;19.33;34.71;94852.72;4438458;26;19929;-61
2024/04/09 08:48:35;;;;;;;;;;;;;;;19.61;34.43;94855.88;4444819;26;20336;-61
2024/04/09 08:50:38;;;;;;;;;;;;;;;19.80;34.58;94858.72;4442373;26;19929;-63
2024/04/09 08:52:40;;;;;;;;;;;;;;;19.73;33.47;94850.75;4461574;26;20288;-60
2024/04/09 08:54:42;;;;;;;;;;;;;;;19.88;33.86;94852.34;4427401;26;20007;-61
2024/04/09 08:56:44;;;;;;;;;;;;;;;19.95;33.93;94850.44;4440561;26;20172;-63
2024/04/09 08:58:45;;;;;;;;;;;;;;;19.97;33.37;94841.22;4455236;26;19995;-61
2024/04/09 09:00:47;;;;;;;;;;;;;;;20.04;32.73;94843.84;4433328;26;19958;-62
2024/04/09 09:02:49;;;;;;;;;;;;;;;20.23;33.42;94836.75;4430584;26;19960;-62
2024/04/09 09:04:51;;;;;;;;;;;;;;;20.00;32.81;94837.31;4434070;26;20045;-61
2024/04/09 09:06:54;;;;;;;;;;;;;;;20.12;33.21;94837.47;4440509;26;20390;-62
2024/04/09 09:08:58;;;;;;;;;;;;;;;20.27;32.68;94835.31;4432395;26;19938;-63
2024/04/09 09:11:00;;;;;;;;;;;;;;;20.34;32.53;94833.41;4432355;26;19946;-63
2024/04/09 09:13:04;;;;;;;;;;;;;;;20.58;32.69;94831.00;4442471;26;19929;-64
2024/04/09 09:15:08;;;;;;;;;;;;;;;20.80;32.81;94826.91;4440308;26;20260;-62
2024/04/09 09:17:11;;;;;;;;;;;;;;;21.01;32.38;94822.19;4444679;26;20704;-61
2024/04/09 09:19:14;;;;;;;;;;;;;;;20.83;31.87;94831.78;4465132;26;19984;-61
2024/04/09 09:21:16;;;;;;;;;;;;;;;20.15;32.67;94823.72;4444447;26;20517;-64
2024/04/09 09:23:19;;;;;;;;;;;;;;;20.42;32.60;94816.38;4442054;26;19929;-60
2024/04/09 09:25:23;;;;;;;;;;;;;;;20.62;32.29;94818.88;4441336;26;20320;-62
2024/04/09 09:27:28;;;;;;;;;;;;;;;20.39;32.64;94814.13;4456242;26;20340;-60
2024/04/09 09:29:31;;;;;;;;;;;;;;;20.05;33.34;94811.72;4440671;26;19964;-62
2024/04/09 09:31:37;;;;;;;;;;;;;;;20.46;32.45;94810.38;4442047;26;20259;-61
2024/04/09 09:33:39;;;;;;;;;;;;;;;20.52;32.04;94806.06;4442934;26;19961;-61
2024/04/09 09:35:43;;;;;;;;;;;;;;;20.51;32.03;94799.09;4455687;26;19936;-61
2024/04/09 09:37:46;;;;;;;;;;;;;;;20.75;32.06;94800.13;4433658;26;20003;-63
2024/04/09 09:39:50;;;;;;;;;;;;;;;20.95;31.28;94791.13;4444707;26;19957;-63
2024/04/09 09:41:51;;;;;;;;;;;;;;;21.09;30.90;94789.94;4443890;26;19929;-60
2024/04/09 09:43:53;;;;;;;;;;;;;;;21.38;31.18;94792.88;4440665;26;19929;-61
2024/04/09 09:45:55;;;;;;;;;;;;;;;21.59;30.59;94788.97;4441141;26;19983;-59
2024/04/09 09:47:57;;;;;;;;;;;;;;;21.59;30.16;94784.44;4452764;26;20007;-58
2024/04/09 09:49:59;;;;;;;;;;;;;;;21.66;29.61;94781.69;4412990;26;20338;-61
2024/04/09 09:52:14;;;;;;;;;;;;;;;21.39;29.59;94781.19;4458236;26;19929;-61
2024/04/09 09:54:16;;;;;;;;;;;;;;;21.61;29.98;94770.88;4454907;26;20406;-61
2024/04/09 09:56:17;;;;;;;;;;;;;;;21.91;30.32;94773.53;4435984;26;20002;-61
2024/04/09 09:58:23;;;;;;;;;;;;;;;22.13;29.67;94771.16;4437801;26;20373;-61
2024/04/09 10:00:24;;;;;;;;;;;;;;;22.26;29.56;94772.81;4442256;26;19941;-61
2024/04/09 10:02:28;;;;;;;;;;;;;;;22.47;29.03;94769.59;4443510;26;20222;-61
2024/04/09 10:04:30;;;;;;;;;;;;;;;22.00;28.36;94771.38;4421771;26;19947;-61
2024/04/09 10:06:32;;;;;;;;;;;;;;;21.43;29.10;94769.91;4427835;26;19929;-63
2024/04/09 10:08:34;;;;;;;;;;;;;;;21.26;29.28;94764.34;4437184;26;19936;-62
2024/04/09 10:10:36;;;;;;;;;;;;;;;21.46;29.27;94771.28;4450152;26;19937;-61
2024/04/09 10:12:37;;;;;;;;;;;;;;;21.64;28.02;94760.59;4441586;26;20652;-62
2024/04/09 10:14:39;;;;;;;;;;;;;;;21.76;28.89;94762.47;4447261;26;19929;-62
2024/04/09 10:16:41;;;;;;;;;;;;;;;21.76;28.02;94757.16;4443972;26;19941;-64
2024/04/09 10:18:45;;;;;;;;;;;;;;;22.02;28.24;94748.75;4452630;26;19984;-62
2024/04/09 10:20:53;;;;;;;;;;;;;;;22.38;26.95;94756.84;4452092;26;19930;-62
2024/04/09 10:22:56;;;;;;;;;;;;;;;22.59;25.55;94760.81;4454285;26;19961;-60
2024/04/09 10:24:57;;;;;;;;;;;;;;;22.08;26.03;94753.16;4442918;26;19929;-62
2024/04/09 10:26:59;;;;;;;;;;;;;;;22.05;26.62;94748.31;4439936;26;20331;-61
2024/04/09 10:29:05;;;;;;;;;;;;;;;22.31;26.40;94746.28;4441894;26;19995;-62
2024/04/09 10:31:12;;;;;;;;;;;;;;;22.56;26.68;94742.56;4461044;26;19937;-62
2024/04/09 10:33:14;;;;;;;;;;;;;;;22.85;26.22;94733.59;4464629;26;20365;-60
2024/04/09 10:35:16;;;;;;;;;;;;;;;22.76;25.04;94734.19;4428222;26;20353;-63
2024/04/09 10:37:18;;;;;;;;;;;;;;;22.52;24.80;94722.72;4448230;26;20003;-61
2024/04/09 10:39:20;;;;;;;;;;;;;;;22.19;25.02;94729.41;4450590;26;19941;-61